createdAt,value
2019-01-13T00:00:13.221Z,0.80
2019-01-13T00:02:42.189Z,0.90
2019-01-13T00:05:10.839Z,0.80
2019-01-13T00:07:39.245Z,0.60
2019-01-13T00:10:08.888Z,0.70
2019-01-13T00:12:37.310Z,0.60
2019-01-13T00:15:08.258Z,0.60
2019-01-13T00:17:36.963Z,0.60
2019-01-13T00:20:08.079Z,0.78
2019-01-13T00:22:36.518Z,0.90
2019-01-13T00:25:05.705Z,0.80
2019-01-13T00:27:34.119Z,0.60
2019-01-13T00:30:04.442Z,0.80
2019-01-13T00:32:33.292Z,0.63
2019-01-13T00:35:01.722Z,0.50
2019-01-13T00:37:30.132Z,0.50
2019-01-13T00:39:58.875Z,0.70
2019-01-13T00:42:27.429Z,0.93
2019-01-13T00:44:56.475Z,0.70
2019-01-13T00:47:24.961Z,0.72
2019-01-13T00:49:53.368Z,0.50
2019-01-13T00:52:21.786Z,0.80
2019-01-13T00:54:50.863Z,0.53
2019-01-13T00:57:19.272Z,0.70
2019-01-13T00:59:47.681Z,0.80
2019-01-13T01:02:16.713Z,0.90
2019-01-13T01:04:45.130Z,0.78
2019-01-13T01:07:13.620Z,0.70
2019-01-13T01:09:42.463Z,0.60
2019-01-13T01:12:10.938Z,0.80
2019-01-13T01:14:39.351Z,0.60
2019-01-13T01:17:08.628Z,0.90
2019-01-13T01:19:37.037Z,0.70
2019-01-13T01:22:05.781Z,0.60
2019-01-13T01:24:34.528Z,0.60
2019-01-13T01:27:03.015Z,0.80
2019-01-13T01:29:31.437Z,0.80
2019-01-13T01:31:59.893Z,0.60
2019-01-13T01:34:28.311Z,0.80
2019-01-13T01:36:56.714Z,0.70
2019-01-13T01:39:25.889Z,0.70
2019-01-13T01:41:54.357Z,0.73
2019-01-13T01:44:22.770Z,0.70
2019-01-13T01:46:55.901Z,0.60
2019-01-13T01:49:24.310Z,0.97
2019-01-13T01:51:52.721Z,0.70
2019-01-13T01:54:21.186Z,1.00
2019-01-13T01:56:49.590Z,0.70
2019-01-13T01:59:18.007Z,0.70
2019-01-13T02:01:46.958Z,0.47
2019-01-13T02:04:15.383Z,0.60
2019-01-13T02:06:43.870Z,0.60
2019-01-13T02:09:12.880Z,0.60
2019-01-13T02:11:41.285Z,0.60
2019-01-13T02:14:09.702Z,0.60
2019-01-13T02:16:38.294Z,0.60
2019-01-13T02:19:06.710Z,0.90
2019-01-13T02:21:35.115Z,0.63
2019-01-13T02:24:03.878Z,0.60
2019-01-13T02:26:32.282Z,0.70
2019-01-13T02:29:00.693Z,0.53
2019-01-13T02:31:29.170Z,0.50
2019-01-13T02:33:57.568Z,0.70
2019-01-13T02:36:25.974Z,0.80
2019-01-13T02:38:54.860Z,0.60
2019-01-13T02:41:23.273Z,0.50
2019-01-13T02:43:51.686Z,0.80
2019-01-13T02:46:20.572Z,0.40
2019-01-13T02:48:49.113Z,0.70
2019-01-13T02:51:17.533Z,0.70
2019-01-13T02:53:45.970Z,0.63
2019-01-13T02:56:14.380Z,0.60
2019-01-13T02:58:42.786Z,0.67
2019-01-13T03:01:11.405Z,0.78
2019-01-13T03:03:39.877Z,0.43
2019-01-13T03:06:08.284Z,0.80
2019-01-13T03:08:37.368Z,0.70
2019-01-13T03:11:05.774Z,0.70
2019-01-13T03:13:34.181Z,0.70
2019-01-13T03:16:02.727Z,0.63
2019-01-13T03:18:31.140Z,0.60
2019-01-13T03:20:59.568Z,0.60
2019-01-13T03:23:28.771Z,0.60
2019-01-13T03:25:57.182Z,0.70
2019-01-13T03:28:25.599Z,0.57
2019-01-13T03:30:54.076Z,0.47
2019-01-13T03:33:22.500Z,0.70
2019-01-13T03:35:50.899Z,0.60
2019-01-13T03:38:19.369Z,0.53
2019-01-13T03:40:47.793Z,0.50
2019-01-13T03:43:16.201Z,0.80
2019-01-13T03:45:45.202Z,0.70
2019-01-13T03:48:13.619Z,0.70
2019-01-13T03:50:42.491Z,0.60
2019-01-13T03:53:11.877Z,0.60
2019-01-13T03:55:40.280Z,0.60
2019-01-13T03:58:08.715Z,0.60
2019-01-13T04:00:37.322Z,0.50
2019-01-13T04:03:05.994Z,0.60
2019-01-13T04:05:34.400Z,0.50
2019-01-13T04:08:03.672Z,0.50
2019-01-13T04:10:32.080Z,0.53
2019-01-13T04:13:00.497Z,0.50
2019-01-13T04:15:32.101Z,0.80
2019-01-13T04:18:01.339Z,0.62
2019-01-13T04:20:29.757Z,0.43
2019-01-13T04:22:58.209Z,0.70
2019-01-13T04:25:26.612Z,0.80
2019-01-13T04:27:55.029Z,0.70
2019-01-13T04:30:24.266Z,0.60
2019-01-13T04:32:52.788Z,0.50
2019-01-13T04:35:21.206Z,0.60
2019-01-13T04:37:49.681Z,0.53
2019-01-13T04:40:18.085Z,0.70
2019-01-13T04:42:46.502Z,0.63
2019-01-13T04:45:15.516Z,0.60
2019-01-13T04:47:44.200Z,0.50
2019-01-13T04:50:14.812Z,0.50
2019-01-13T04:52:44.453Z,0.50
2019-01-13T04:55:13.121Z,0.57
2019-01-13T04:57:41.532Z,0.70
2019-01-13T05:00:13.177Z,0.67
2019-01-13T05:02:41.638Z,0.67
2019-01-13T05:05:10.181Z,0.70
2019-01-13T05:07:39.014Z,0.70
2019-01-13T05:10:10.554Z,0.50
2019-01-13T05:12:38.965Z,0.77
2019-01-13T05:15:08.870Z,0.70
2019-01-13T05:17:37.272Z,0.50
2019-01-13T05:20:08.906Z,0.50
2019-01-13T05:22:37.350Z,0.60
2019-01-13T05:25:07.494Z,0.60
2019-01-13T05:27:36.065Z,0.50
2019-01-13T05:30:13.880Z,0.60
2019-01-13T05:32:42.362Z,0.60
2019-01-13T05:35:10.933Z,0.70
2019-01-13T05:37:39.741Z,0.60
2019-01-13T05:40:16.514Z,0.63
2019-01-13T05:42:45.037Z,0.60
2019-01-13T05:45:15.715Z,0.60
2019-01-13T05:47:44.437Z,0.53
2019-01-13T05:50:15.484Z,0.60
2019-01-13T05:52:44.834Z,0.60
2019-01-13T05:55:13.741Z,0.70
2019-01-13T05:57:42.344Z,0.60
2019-01-13T06:00:16.203Z,0.60
2019-01-13T06:02:44.605Z,0.50
2019-01-13T06:05:13.416Z,0.50
2019-01-13T06:07:41.889Z,0.60
2019-01-13T06:10:13.139Z,0.50
2019-01-13T06:12:42.258Z,0.57
2019-01-13T06:15:13.706Z,0.40
2019-01-13T06:17:42.118Z,0.80
2019-01-13T06:20:19.365Z,0.60
2019-01-13T06:22:47.765Z,0.60
2019-01-13T06:25:16.245Z,0.60
2019-01-13T06:27:45.110Z,0.70
2019-01-13T06:30:16.169Z,0.50
2019-01-13T06:32:44.586Z,0.60
2019-01-13T06:35:13.526Z,0.33
2019-01-13T06:37:41.925Z,0.70
2019-01-13T06:40:13.164Z,0.60
2019-01-13T06:42:42.451Z,0.50
2019-01-13T06:45:16.488Z,0.60
2019-01-13T06:47:44.944Z,0.60
2019-01-13T06:50:14.953Z,0.50
2019-01-13T06:52:43.536Z,0.40
2019-01-13T06:55:12.285Z,0.40
2019-01-13T06:57:41.170Z,0.33
2019-01-13T07:00:15.440Z,0.50
2019-01-13T07:02:43.861Z,0.60
2019-01-13T07:05:13.318Z,0.40
2019-01-13T07:07:41.805Z,0.50
2019-01-13T07:10:11.749Z,0.40
2019-01-13T07:12:40.812Z,0.50
2019-01-13T07:15:12.269Z,0.40
2019-01-13T07:17:40.679Z,0.50
2019-01-13T07:20:12.500Z,0.40
2019-01-13T07:22:40.911Z,0.30
2019-01-13T07:25:09.322Z,0.57
2019-01-13T07:27:38.364Z,0.40
2019-01-13T07:30:15.335Z,0.40
2019-01-13T07:32:44.034Z,0.50
2019-01-13T07:35:12.450Z,0.40
2019-01-13T07:37:40.917Z,0.40
2019-01-13T07:40:17.100Z,0.40
2019-01-13T07:42:45.566Z,0.50
2019-01-13T07:45:22.315Z,0.40
2019-01-13T07:47:50.725Z,0.47
2019-01-13T07:50:19.306Z,0.40
2019-01-13T07:52:48.148Z,0.40
2019-01-13T07:55:18.584Z,0.43
2019-01-13T07:57:47.781Z,0.30
2019-01-13T08:00:28.723Z,0.50
2019-01-13T08:02:57.708Z,0.40
2019-01-13T08:05:26.173Z,0.50
2019-01-13T08:07:54.741Z,0.40
2019-01-13T08:10:23.165Z,0.33
2019-01-13T08:12:51.688Z,0.40
2019-01-13T08:15:21.603Z,0.30
2019-01-13T08:17:50.065Z,0.35
2019-01-13T08:20:24.224Z,0.33
2019-01-13T08:22:53.506Z,0.20
2019-01-13T08:25:22.473Z,0.40
2019-01-13T08:27:50.961Z,0.28
2019-01-13T08:30:21.105Z,0.40
2019-01-13T08:32:49.776Z,0.50
2019-01-13T08:35:18.535Z,0.33
2019-01-13T08:37:48.484Z,0.40
2019-01-13T08:40:21.032Z,0.33
2019-01-13T08:42:49.632Z,0.30
2019-01-13T08:45:19.122Z,0.30
2019-01-13T08:47:47.536Z,0.37
2019-01-13T08:50:20.349Z,0.40
2019-01-13T08:52:48.887Z,0.30
2019-01-13T08:55:17.640Z,0.50
2019-01-13T08:57:46.148Z,0.40
2019-01-13T09:00:17.616Z,0.40
2019-01-13T09:02:46.033Z,0.40
2019-01-13T09:05:14.447Z,0.40
2019-01-13T09:07:44.308Z,0.50
2019-01-13T09:10:15.738Z,0.40
2019-01-13T09:12:44.278Z,0.45
2019-01-13T09:15:16.157Z,0.50
2019-01-13T09:17:44.609Z,0.60
2019-01-13T09:20:16.068Z,0.70
2019-01-13T09:22:45.118Z,0.70
2019-01-13T09:25:13.595Z,0.60
2019-01-13T09:27:42.187Z,0.60
2019-01-13T09:30:22.562Z,0.57
2019-01-13T09:32:51.001Z,0.57
2019-01-13T09:35:19.426Z,0.80
2019-01-13T09:37:49.100Z,0.50
2019-01-13T09:40:20.657Z,0.60
2019-01-13T09:42:49.124Z,0.82
2019-01-13T09:45:17.580Z,0.65
2019-01-13T09:47:46.062Z,0.70
2019-01-13T09:50:17.366Z,1.02
2019-01-13T09:52:46.798Z,1.00
2019-01-13T09:55:17.940Z,1.03
2019-01-13T09:57:46.594Z,0.90
2019-01-13T10:00:24.385Z,0.95
2019-01-13T10:02:53.060Z,0.90
2019-01-13T10:05:21.493Z,1.00
2019-01-13T10:07:50.146Z,0.90
2019-01-13T10:10:18.609Z,1.00
2019-01-13T10:12:47.013Z,0.90
2019-01-13T10:15:18.334Z,0.98
2019-01-13T10:17:46.788Z,1.20
2019-01-13T10:20:16.110Z,1.22
2019-01-13T10:22:45.333Z,0.95
2019-01-13T10:25:14.037Z,0.60
2019-01-13T10:27:42.443Z,1.10
2019-01-13T10:30:19.473Z,0.95
2019-01-13T10:32:54.341Z,0.70
2019-01-13T10:35:18.094Z,1.00
2019-01-13T10:37:47.706Z,1.00
2019-01-13T10:40:21.129Z,1.02
2019-01-13T10:42:49.779Z,1.27
2019-01-13T10:45:18.698Z,1.25
2019-01-13T10:47:47.127Z,1.17
2019-01-13T10:50:24.089Z,1.10
2019-01-13T10:52:59.386Z,1.32
2019-01-13T10:55:29.185Z,2.08
2019-01-13T10:57:57.668Z,1.85
2019-01-13T11:00:28.567Z,1.27
2019-01-13T11:03:02.019Z,1.57
2019-01-13T11:05:27.699Z,1.37
2019-01-13T11:07:56.953Z,1.55
2019-01-13T11:10:25.501Z,1.37
2019-01-13T11:12:53.976Z,1.40
2019-01-13T11:15:22.538Z,1.42
2019-01-13T11:17:51.779Z,1.35
2019-01-13T11:20:22.934Z,1.12
2019-01-13T11:22:51.362Z,1.45
2019-01-13T11:25:19.829Z,1.22
2019-01-13T11:27:48.259Z,1.42
2019-01-13T11:30:21.966Z,1.03
2019-01-13T11:32:50.442Z,1.12
2019-01-13T11:35:18.850Z,1.50
2019-01-13T11:37:47.904Z,1.00
2019-01-13T11:40:22.375Z,3.70
2019-01-13T11:42:50.870Z,5.53
2019-01-13T11:45:19.353Z,5.10
2019-01-13T11:47:48.185Z,5.80
2019-01-13T11:50:18.859Z,19.67
2019-01-13T11:52:47.723Z,23.20
2019-01-13T11:55:18.134Z,20.88
2019-01-13T11:57:46.538Z,11.12
2019-01-13T12:00:27.830Z,10.30
2019-01-13T12:02:56.688Z,8.23
2019-01-13T12:05:25.100Z,7.90
2019-01-13T12:07:54.062Z,9.13
2019-01-13T12:10:23.047Z,7.58
2019-01-13T12:12:51.529Z,7.35
2019-01-13T12:15:23.816Z,7.40
2019-01-13T12:17:52.244Z,6.75
2019-01-13T12:20:22.692Z,6.60
2019-01-13T12:22:52.546Z,6.00
2019-01-13T12:25:22.973Z,5.70
2019-01-13T12:27:52.663Z,5.12
2019-01-13T12:30:26.974Z,5.45
2019-01-13T12:32:56.030Z,5.00
2019-01-13T12:35:24.434Z,4.65
2019-01-13T12:37:53.196Z,5.65
2019-01-13T12:40:27.226Z,4.28
2019-01-13T12:42:55.654Z,4.12
2019-01-13T12:45:24.745Z,3.05
2019-01-13T12:47:53.605Z,2.45
2019-01-13T12:50:24.373Z,2.65
2019-01-13T12:52:53.574Z,2.47
2019-01-13T12:55:22.062Z,2.33
2019-01-13T12:57:50.635Z,2.22
2019-01-13T13:00:20.791Z,2.30
2019-01-13T13:02:49.309Z,2.12
2019-01-13T13:05:18.177Z,2.17
2019-01-13T13:07:47.622Z,2.02
2019-01-13T13:10:19.181Z,2.02
2019-01-13T13:12:47.602Z,1.75
2019-01-13T13:15:17.062Z,1.80
2019-01-13T13:17:45.536Z,1.92
2019-01-13T13:20:15.895Z,1.47
2019-01-13T13:22:44.910Z,1.70
2019-01-13T13:25:14.266Z,1.82
2019-01-13T13:27:45.696Z,1.90
2019-01-13T13:30:23.991Z,2.10
2019-01-13T13:32:52.443Z,1.87
2019-01-13T13:35:21.222Z,1.80
2019-01-13T13:37:50.250Z,1.90
2019-01-13T13:40:21.915Z,1.82
2019-01-13T13:42:50.701Z,1.80
2019-01-13T13:45:19.730Z,1.98
2019-01-13T13:47:48.483Z,1.50
2019-01-13T13:50:19.806Z,1.30
2019-01-13T13:52:48.816Z,1.52
2019-01-13T13:55:17.230Z,1.77
2019-01-13T13:57:45.638Z,1.62
2019-01-13T14:00:17.684Z,1.67
2019-01-13T14:02:46.183Z,1.42
2019-01-13T14:05:14.742Z,1.40
2019-01-13T14:07:43.231Z,1.70
2019-01-13T14:10:29.578Z,1.60
2019-01-13T14:12:58.700Z,1.30
2019-01-13T14:15:27.112Z,1.40
2019-01-13T14:17:55.526Z,1.37
2019-01-13T14:20:24.281Z,1.60
2019-01-13T14:22:52.680Z,1.40
2019-01-13T14:25:21.185Z,1.32
2019-01-13T14:27:50.034Z,1.55
2019-01-13T14:30:25.079Z,1.37
2019-01-13T14:32:53.672Z,1.10
2019-01-13T14:35:22.959Z,1.40
2019-01-13T14:37:51.517Z,1.62
2019-01-13T14:40:22.535Z,1.40
2019-01-13T14:42:51.017Z,1.60
2019-01-13T14:45:21.557Z,1.32
2019-01-13T14:47:49.980Z,1.55
2019-01-13T14:50:21.501Z,1.30
2019-01-13T14:52:50.367Z,1.37
2019-01-13T14:55:19.149Z,1.47
2019-01-13T14:57:49.328Z,1.40
2019-01-13T15:00:20.182Z,1.20
2019-01-13T15:02:48.676Z,1.30
2019-01-13T15:05:18.366Z,1.10
2019-01-13T15:07:46.925Z,1.42
2019-01-13T15:10:20.475Z,1.30
2019-01-13T15:12:49.111Z,1.30
2019-01-13T15:15:17.775Z,1.50
2019-01-13T15:17:46.220Z,1.50
2019-01-13T15:20:20.659Z,1.50
2019-01-13T15:22:51.622Z,1.30
2019-01-13T15:25:23.499Z,1.30
2019-01-13T15:27:52.097Z,1.57
2019-01-13T15:30:28.704Z,1.30
2019-01-13T15:32:57.966Z,1.10
2019-01-13T15:35:26.449Z,1.30
2019-01-13T15:37:54.871Z,1.30
2019-01-13T15:40:23.923Z,1.50
2019-01-13T15:42:52.346Z,1.30
2019-01-13T15:45:20.888Z,1.50
2019-01-13T15:47:49.360Z,1.37
2019-01-13T15:50:25.491Z,1.30
2019-01-13T15:52:54.249Z,1.10
2019-01-13T15:55:22.818Z,1.05
2019-01-13T15:57:51.325Z,1.35
2019-01-13T16:00:25.843Z,1.00
2019-01-13T16:02:54.329Z,1.07
2019-01-13T16:05:22.751Z,1.20
2019-01-13T16:07:51.357Z,1.12
2019-01-13T16:10:21.926Z,1.10
2019-01-13T16:12:50.432Z,0.80
2019-01-13T16:15:19.464Z,1.30
2019-01-13T16:17:48.227Z,1.40
2019-01-13T16:20:25.259Z,0.80
2019-01-13T16:22:54.055Z,1.30
2019-01-13T16:25:22.545Z,1.00
2019-01-13T16:27:51.482Z,1.07
2019-01-13T16:30:25.466Z,1.00
2019-01-13T16:32:54.069Z,1.10
2019-01-13T16:35:24.421Z,0.90
2019-01-13T16:37:52.836Z,1.00
2019-01-13T16:40:22.689Z,1.05
2019-01-13T16:42:52.021Z,1.60
2019-01-13T16:45:20.458Z,1.00
2019-01-13T16:47:49.238Z,1.00
2019-01-13T16:50:20.455Z,1.20
2019-01-13T16:52:51.119Z,1.20
2019-01-13T16:55:20.236Z,1.00
2019-01-13T16:57:49.237Z,1.10
2019-01-13T17:00:26.115Z,1.10
2019-01-13T17:02:55.218Z,0.98
2019-01-13T17:05:24.482Z,1.10
2019-01-13T17:07:53.429Z,1.00
2019-01-13T17:10:24.270Z,1.17
2019-01-13T17:12:52.741Z,0.78
2019-01-13T17:15:26.518Z,0.90
2019-01-13T17:17:57.376Z,0.90
2019-01-13T17:20:25.861Z,0.90
2019-01-13T17:22:54.295Z,0.95
2019-01-13T17:25:24.937Z,1.17
2019-01-13T17:27:53.433Z,1.00
2019-01-13T17:30:24.092Z,1.25
2019-01-13T17:32:52.868Z,1.10
2019-01-13T17:35:21.349Z,1.40
2019-01-13T17:37:51.025Z,1.57
2019-01-13T17:40:23.274Z,1.20
2019-01-13T17:42:52.236Z,1.60
2019-01-13T17:45:25.587Z,1.70
2019-01-13T17:47:53.995Z,1.60
2019-01-13T17:50:24.156Z,1.30
2019-01-13T17:52:52.978Z,1.40
2019-01-13T17:55:26.322Z,1.20
2019-01-13T17:57:54.812Z,1.10
2019-01-13T18:00:32.180Z,1.40
2019-01-13T18:03:06.043Z,1.02
2019-01-13T18:05:34.459Z,1.40
2019-01-13T18:08:03.110Z,1.70
2019-01-13T18:10:31.530Z,1.22
2019-01-13T18:12:59.950Z,1.20
2019-01-13T18:15:28.474Z,1.32
2019-01-13T18:17:56.885Z,1.10
2019-01-13T18:20:25.334Z,1.20
2019-01-13T18:22:54.027Z,1.60
2019-01-13T18:25:22.709Z,1.25
2019-01-13T18:27:51.127Z,1.20
2019-01-13T18:30:25.950Z,1.10
2019-01-13T18:32:54.364Z,1.00
2019-01-13T18:35:23.830Z,1.02
2019-01-13T18:37:52.617Z,1.00
2019-01-13T18:40:23.328Z,0.93
2019-01-13T18:42:51.736Z,1.10
2019-01-13T18:45:20.599Z,1.10
2019-01-13T18:47:49.031Z,1.15
2019-01-13T18:50:19.495Z,1.30
2019-01-13T18:52:52.114Z,1.00
2019-01-13T18:55:20.695Z,1.00
2019-01-13T18:57:49.111Z,0.75
2019-01-13T19:00:20.309Z,0.80
2019-01-13T19:02:48.722Z,1.22
2019-01-13T19:05:19.297Z,0.95
2019-01-13T19:07:48.029Z,1.25
2019-01-13T19:10:25.466Z,1.20
2019-01-13T19:12:57.778Z,1.02
2019-01-13T19:15:26.194Z,1.10
2019-01-13T19:17:56.658Z,0.90
2019-01-13T19:20:25.678Z,1.25
2019-01-13T19:22:54.086Z,1.00
2019-01-13T19:25:22.669Z,1.00
2019-01-13T19:27:51.321Z,0.68
2019-01-13T19:30:19.800Z,0.93
2019-01-13T19:32:48.222Z,1.02
2019-01-13T19:35:17.488Z,1.10
2019-01-13T19:37:46.060Z,1.00
2019-01-13T19:40:16.711Z,0.93
2019-01-13T19:42:47.162Z,0.70
2019-01-13T19:45:18.511Z,1.10
2019-01-13T19:47:46.935Z,0.80
2019-01-13T19:50:18.228Z,0.78
2019-01-13T19:52:46.645Z,1.00
2019-01-13T19:55:17.112Z,0.98
2019-01-13T19:57:45.679Z,0.72
2019-01-13T20:00:25.965Z,0.80
2019-01-13T20:02:54.508Z,1.07
2019-01-13T20:05:22.912Z,1.00
2019-01-13T20:07:51.391Z,1.00
2019-01-13T20:10:20.198Z,1.00
2019-01-13T20:12:48.657Z,0.90
2019-01-13T20:15:19.410Z,1.05
2019-01-13T20:17:48.316Z,1.05
2019-01-13T20:20:21.180Z,0.78
2019-01-13T20:22:49.598Z,1.00
2019-01-13T20:25:19.168Z,0.80
2019-01-13T20:27:47.586Z,0.80
2019-01-13T20:30:21.787Z,0.93
2019-01-13T20:32:50.563Z,0.82
2019-01-13T20:35:19.540Z,0.60
2019-01-13T20:37:48.127Z,0.62
2019-01-13T20:40:17.849Z,0.90
2019-01-13T20:42:47.024Z,0.68
2019-01-13T20:45:24.433Z,0.70
2019-01-13T20:47:52.851Z,0.53
2019-01-13T20:50:21.283Z,0.70
2019-01-13T20:52:50.515Z,0.90
2019-01-13T20:55:19.004Z,0.90
2019-01-13T20:57:47.440Z,0.80
2019-01-13T21:00:18.967Z,0.60
2019-01-13T21:02:47.394Z,0.82
2019-01-13T21:05:15.954Z,0.70
2019-01-13T21:07:45.248Z,0.75
2019-01-13T21:10:16.213Z,0.70
2019-01-13T21:12:44.732Z,0.50
2019-01-13T21:15:18.904Z,0.50
2019-01-13T21:17:47.373Z,0.60
2019-01-13T21:20:16.157Z,0.70
2019-01-13T21:22:44.636Z,0.50
2019-01-13T21:25:17.465Z,0.60
2019-01-13T21:27:46.219Z,0.70
2019-01-13T21:30:30.259Z,0.80
2019-01-13T21:32:58.673Z,0.60
2019-01-13T21:35:33.540Z,0.57
2019-01-13T21:37:57.405Z,0.62
2019-01-13T21:40:26.102Z,0.55
2019-01-13T21:42:54.622Z,0.70
2019-01-13T21:45:24.340Z,0.72
2019-01-13T21:47:53.248Z,0.62
2019-01-13T21:50:26.262Z,0.70
2019-01-13T21:52:55.617Z,0.90
2019-01-13T21:55:24.222Z,0.70
2019-01-13T21:57:52.707Z,0.80
2019-01-13T22:00:26.285Z,0.70
2019-01-13T22:02:55.087Z,0.55
2019-01-13T22:05:24.131Z,0.60
2019-01-13T22:07:52.925Z,0.62
2019-01-13T22:10:23.089Z,0.70
2019-01-13T22:12:51.742Z,0.62
2019-01-13T22:15:22.470Z,0.55
2019-01-13T22:17:51.166Z,0.50
2019-01-13T22:20:21.913Z,0.68
2019-01-13T22:22:51.131Z,0.80
2019-01-13T22:25:19.820Z,0.55
2019-01-13T22:27:48.251Z,0.55
2019-01-13T22:30:19.543Z,0.72
2019-01-13T22:32:47.959Z,0.50
2019-01-13T22:35:16.372Z,0.60
2019-01-13T22:37:45.526Z,1.05
2019-01-13T22:40:15.779Z,0.40
2019-01-13T22:42:44.666Z,0.68
2019-01-13T22:45:15.758Z,0.80
2019-01-13T22:47:44.176Z,0.65
2019-01-13T22:50:15.068Z,0.50
2019-01-13T22:52:43.671Z,0.50
2019-01-13T22:55:12.242Z,0.53
2019-01-13T22:57:40.659Z,0.40
2019-01-13T23:00:39.517Z,0.40
2019-01-13T23:03:08.002Z,0.60
2019-01-13T23:05:36.416Z,0.60
2019-01-13T23:08:05.269Z,0.37
2019-01-13T23:10:33.673Z,0.40
2019-01-13T23:13:02.102Z,0.50
2019-01-13T23:15:30.921Z,0.40
2019-01-13T23:17:59.334Z,0.50
2019-01-13T23:20:27.761Z,0.40
2019-01-13T23:22:56.672Z,0.50
2019-01-13T23:25:25.125Z,0.55
2019-01-13T23:27:53.577Z,0.40
2019-01-13T23:30:22.059Z,0.50
2019-01-13T23:32:50.524Z,0.30
2019-01-13T23:35:18.937Z,0.50
2019-01-13T23:37:47.497Z,0.40
2019-01-13T23:40:16.145Z,0.50
2019-01-13T23:42:44.624Z,0.62
2019-01-13T23:45:13.820Z,0.50
2019-01-13T23:47:42.228Z,0.70
2019-01-13T23:50:10.774Z,0.50
2019-01-13T23:52:39.757Z,0.40
2019-01-13T23:55:08.452Z,0.70
2019-01-13T23:57:36.877Z,0.55
